Terminal Aerodrome Forecast
Issued by NWS Caribou, ME

Home | Current Version | Previous Version | Text Only | Print | Product List | Glossary On
Versions: 1 2 3 4 5 6 7 8 9 10 11 12 13 14 15 16 17 18 19 20
000
FTUS41 KCAR 301400 AAB
TAFCAR
TAF AMD
KCAR 301437Z 3015/0112 12005KT 6SM -DZ OVC007
     FM301700 14005KT P6SM -DZ SCT007 OVC015
     FM301900 16004KT P6SM -DZ SCT015 OVC025
     FM302100 VRB03KT P6SM -DZ OVC035
     FM010600 00000KT P6SM -DZ BKN025
     FM011000 01004KT 6SM -DZ SCT015=

USA.gov is the U.S. government's official web portal to all federal, state and local government web resources and services.